sensor_id;sensor_type;location;lat;lon;timestamp;pressure;altitude;pressure_sealevel;temperature;humidity
20860;BME280;10590;48.154;11.514;2023-04-04T00:03:11;96329.09;;;-0.32;60.60
20860;BME280;10590;48.154;11.514;2023-04-04T00:08:32;96330.09;;;-0.10;60.81
20860;BME280;10590;48.154;11.514;2023-04-04T00:13:54;96321.44;;;-0.22;60.15
20860;BME280;10590;48.154;11.514;2023-04-04T00:19:17;96324.72;;;0.09;58.94
20860;BME280;10590;48.154;11.514;2023-04-04T00:24:39;96315.84;;;-0.25;60.17
20860;BME280;10590;48.154;11.514;2023-04-04T00:30:01;96313.56;;;0.02;59.91
20860;BME280;10590;48.154;11.514;2023-04-04T00:35:24;96309.81;;;-0.26;59.82
20860;BME280;10590;48.154;11.514;2023-04-04T00:40:47;96305.94;;;-0.47;59.70
20860;BME280;10590;48.154;11.514;2023-04-04T00:46:09;96284.97;;;-0.35;60.17
20860;BME280;10590;48.154;11.514;2023-04-04T00:51:35;96295.34;;;-0.40;61.18
20860;BME280;10590;48.154;11.514;2023-04-04T00:56:57;96279.06;;;-0.42;61.12
20860;BME280;10590;48.154;11.514;2023-04-04T01:02:19;96293.28;;;-0.38;60.80
20860;BME280;10590;48.154;11.514;2023-04-04T01:07:42;96289.31;;;-0.52;60.80
20860;BME280;10590;48.154;11.514;2023-04-04T01:13:03;96284.06;;;-0.64;61.48
20860;BME280;10590;48.154;11.514;2023-04-04T01:18:26;96272.56;;;-0.63;61.03
20860;BME280;10590;48.154;11.514;2023-04-04T01:23:57;96271.66;;;-0.80;62.40
20860;BME280;10590;48.154;11.514;2023-04-04T01:29:20;96266.75;;;-0.77;61.97
20860;BME280;10590;48.154;11.514;2023-04-04T01:34:48;96273.44;;;-0.92;61.98
20860;BME280;10590;48.154;11.514;2023-04-04T01:40:17;96267.41;;;-0.93;62.61
20860;BME280;10590;48.154;11.514;2023-04-04T01:45:40;96257.63;;;-0.86;63.19
20860;BME280;10590;48.154;11.514;2023-04-04T01:51:02;96249.97;;;-1.11;63.90
20860;BME280;10590;48.154;11.514;2023-04-04T01:56:24;96259.75;;;-1.06;63.38
20860;BME280;10590;48.154;11.514;2023-04-04T02:01:47;96249.16;;;-1.23;63.77
20860;BME280;10590;48.154;11.514;2023-04-04T02:07:09;96257.78;;;-1.22;64.04
20860;BME280;10590;48.154;11.514;2023-04-04T02:12:31;96251.75;;;-1.23;63.20
20860;BME280;10590;48.154;11.514;2023-04-04T02:17:54;96255.75;;;-1.20;63.59
20860;BME280;10590;48.154;11.514;2023-04-04T02:23:20;96250.38;;;-1.37;64.02
20860;BME280;10590;48.154;11.514;2023-04-04T02:28:42;96253.91;;;-1.32;64.67
20860;BME280;10590;48.154;11.514;2023-04-04T02:34:04;96244.44;;;-1.44;64.17
20860;BME280;10590;48.154;11.514;2023-04-04T02:39:26;96248.63;;;-1.55;65.02
20860;BME280;10590;48.154;11.514;2023-04-04T02:44:48;96237.34;;;-1.55;65.03
20860;BME280;10590;48.154;11.514;2023-04-04T02:50:11;96235.97;;;-1.58;65.64
20860;BME280;10590;48.154;11.514;2023-04-04T02:55:32;96249.38;;;-1.66;66.17
20860;BME280;10590;48.154;11.514;2023-04-04T03:00:54;96243.97;;;-1.53;65.30
20860;BME280;10590;48.154;11.514;2023-04-04T03:06:17;96240.22;;;-1.75;66.63
20860;BME280;10590;48.154;11.514;2023-04-04T03:11:39;96241.53;;;-1.66;66.27
20860;BME280;10590;48.154;11.514;2023-04-04T03:17:01;96238.47;;;-1.63;65.80
20860;BME280;10590;48.154;11.514;2023-04-04T03:22:24;96237.59;;;-1.75;66.72
20860;BME280;10590;48.154;11.514;2023-04-04T03:27:45;96240.66;;;-1.78;66.80
20860;BME280;10590;48.154;11.514;2023-04-04T03:33:07;96229.72;;;-1.87;66.82
20860;BME280;10590;48.154;11.514;2023-04-04T03:38:30;96229.44;;;-1.97;67.02
20860;BME280;10590;48.154;11.514;2023-04-04T03:43:52;96228.19;;;-1.95;66.96
20860;BME280;10590;48.154;11.514;2023-04-04T03:49:13;96244.78;;;-2.01;67.60
20860;BME280;10590;48.154;11.514;2023-04-04T03:54:36;96246.50;;;-1.95;67.07
20860;BME280;10590;48.154;11.514;2023-04-04T03:59:58;96250.22;;;-2.02;67.09
20860;BME280;10590;48.154;11.514;2023-04-04T04:05:20;96255.94;;;-1.94;66.83
20860;BME280;10590;48.154;11.514;2023-04-04T04:10:43;96252.56;;;-2.12;67.43
20860;BME280;10590;48.154;11.514;2023-04-04T04:16:05;96256.56;;;-2.10;66.64
20860;BME280;10590;48.154;11.514;2023-04-04T04:21:27;96260.53;;;-2.07;66.75
20860;BME280;10590;48.154;11.514;2023-04-04T04:26:50;96263.81;;;-2.12;67.48
20860;BME280;10590;48.154;11.514;2023-04-04T04:32:14;96255.25;;;-2.19;67.75
20860;BME280;10590;48.154;11.514;2023-04-04T04:37:36;96272.84;;;-2.26;67.73
20860;BME280;10590;48.154;11.514;2023-04-04T04:43:01;96270.13;;;-2.19;67.12
20860;BME280;10590;48.154;11.514;2023-04-04T04:48:23;96267.53;;;-2.19;67.17
20860;BME280;10590;48.154;11.514;2023-04-04T04:53:44;96268.19;;;-2.24;67.41
20860;BME280;10590;48.154;11.514;2023-04-04T04:59:08;96268.47;;;-2.32;67.21
20860;BME280;10590;48.154;11.514;2023-04-04T05:04:30;96278.56;;;-2.36;67.93
20860;BME280;10590;48.154;11.514;2023-04-04T05:09:52;96280.81;;;-2.21;66.85
20860;BME280;10590;48.154;11.514;2023-04-04T05:15:15;96276.91;;;-2.30;67.61
20860;BME280;10590;48.154;11.514;2023-04-04T05:20:37;96287.13;;;-2.10;67.71
20860;BME280;10590;48.154;11.514;2023-04-04T05:25:58;96276.88;;;-1.94;66.32
20860;BME280;10590;48.154;11.514;2023-04-04T05:31:21;96283.19;;;-1.83;65.51
20860;BME280;10590;48.154;11.514;2023-04-04T05:36:43;96288.63;;;-1.66;65.64
20860;BME280;10590;48.154;11.514;2023-04-04T05:42:05;96287.47;;;-1.70;64.93
20860;BME280;10590;48.154;11.514;2023-04-04T05:47:28;96294.56;;;-0.76;63.39
20860;BME280;10590;48.154;11.514;2023-04-04T05:52:52;96281.16;;;1.10;59.59
20860;BME280;10590;48.154;11.514;2023-04-04T05:58:15;96287.47;;;0.80;55.82
20860;BME280;10590;48.154;11.514;2023-04-04T06:03:38;96286.75;;;0.40;56.76
20860;BME280;10590;48.154;11.514;2023-04-04T06:08:59;96286.00;;;-0.71;61.07
20860;BME280;10590;48.154;11.514;2023-04-04T06:14:21;96270.59;;;-0.33;60.91
20860;BME280;10590;48.154;11.514;2023-04-04T06:19:44;96291.59;;;-0.44;58.80
20860;BME280;10590;48.154;11.514;2023-04-04T06:25:07;96290.47;;;1.51;53.61
20860;BME280;10590;48.154;11.514;2023-04-04T06:30:34;96285.63;;;3.65;47.41
20860;BME280;10590;48.154;11.514;2023-04-04T06:35:58;96284.72;;;2.85;49.86
20860;BME280;10590;48.154;11.514;2023-04-04T06:41:19;96271.56;;;3.96;45.48
20860;BME280;10590;48.154;11.514;2023-04-04T06:46:41;96283.59;;;3.77;44.85
20860;BME280;10590;48.154;11.514;2023-04-04T06:52:05;96286.75;;;3.05;45.29
20860;BME280;10590;48.154;11.514;2023-04-04T06:57:26;96275.84;;;5.61;41.02
20860;BME280;10590;48.154;11.514;2023-04-04T07:02:48;96261.00;;;4.84;41.36
20860;BME280;10590;48.154;11.514;2023-04-04T07:08:11;96270.56;;;5.46;40.08
20860;BME280;10590;48.154;11.514;2023-04-04T07:13:33;96279.03;;;5.48;39.60
20860;BME280;10590;48.154;11.514;2023-04-04T07:18:55;96277.13;;;5.84;40.01
20860;BME280;10590;48.154;11.514;2023-04-04T07:24:18;96269.81;;;6.46;37.88
20860;BME280;10590;48.154;11.514;2023-04-04T07:29:40;96272.19;;;5.27;39.56
20860;BME280;10590;48.154;11.514;2023-04-04T07:35:02;96252.50;;;4.52;40.66
20860;BME280;10590;48.154;11.514;2023-04-04T07:40:25;96268.88;;;6.21;37.53
20860;BME280;10590;48.154;11.514;2023-04-04T07:45:47;96265.25;;;4.90;38.77
20860;BME280;10590;48.154;11.514;2023-04-04T07:51:09;96272.75;;;8.14;34.62
20860;BME280;10590;48.154;11.514;2023-04-04T07:56:32;96264.16;;;8.46;32.67
20860;BME280;10590;48.154;11.514;2023-04-04T08:01:53;96258.66;;;8.99;33.54
20860;BME280;10590;48.154;11.514;2023-04-04T08:07:15;96265.94;;;7.50;34.63
20860;BME280;10590;48.154;11.514;2023-04-04T08:12:38;96259.72;;;10.92;29.96
20860;BME280;10590;48.154;11.514;2023-04-04T08:18:00;96262.81;;;6.00;37.60
20860;BME280;10590;48.154;11.514;2023-04-04T08:23:21;96262.13;;;11.60;32.42
20860;BME280;10590;48.154;11.514;2023-04-04T08:28:45;96266.69;;;8.56;31.93
20860;BME280;10590;48.154;11.514;2023-04-04T08:34:06;96263.41;;;10.13;31.43
20860;BME280;10590;48.154;11.514;2023-04-04T08:39:28;96266.34;;;5.50;37.69
20860;BME280;10590;48.154;11.514;2023-04-04T08:44:52;96279.56;;;5.09;37.34
20860;BME280;10590;48.154;11.514;2023-04-04T08:50:14;96272.91;;;4.92;37.41
20860;BME280;10590;48.154;11.514;2023-04-04T08:55:37;96273.50;;;4.21;38.73
20860;BME280;10590;48.154;11.514;2023-04-04T09:01:00;96265.41;;;3.80;39.97
20860;BME280;10590;48.154;11.514;2023-04-04T09:06:22;96280.31;;;2.64;42.25
20860;BME280;10590;48.154;11.514;2023-04-04T09:11:44;96273.47;;;4.94;36.63
20860;BME280;10590;48.154;11.514;2023-04-04T09:17:09;96279.06;;;2.98;39.68
20860;BME280;10590;48.154;11.514;2023-04-04T09:22:30;96269.19;;;2.13;41.49
20860;BME280;10590;48.154;11.514;2023-04-04T09:27:52;96275.88;;;3.28;40.99
20860;BME280;10590;48.154;11.514;2023-04-04T09:33:17;96293.09;;;3.41;39.31
20860;BME280;10590;48.154;11.514;2023-04-04T09:38:40;96288.19;;;3.49;39.84
20860;BME280;10590;48.154;11.514;2023-04-04T09:44:03;96293.53;;;2.69;39.61
20860;BME280;10590;48.154;11.514;2023-04-04T09:49:30;96280.72;;;4.36;37.61
20860;BME280;10590;48.154;11.514;2023-04-04T09:54:56;96286.72;;;5.24;37.89
20860;BME280;10590;48.154;11.514;2023-04-04T10:00:19;96289.06;;;3.65;39.13
20860;BME280;10590;48.154;11.514;2023-04-04T10:05:43;96288.19;;;3.97;40.48
20860;BME280;10590;48.154;11.514;2023-04-04T10:11:05;96295.81;;;4.45;38.20
20860;BME280;10590;48.154;11.514;2023-04-04T10:16:30;96290.84;;;4.02;38.95
20860;BME280;10590;48.154;11.514;2023-04-04T10:21:53;96291.59;;;6.32;37.54
20860;BME280;10590;48.154;11.514;2023-04-04T10:27:15;96289.28;;;4.73;37.40
20860;BME280;10590;48.154;11.514;2023-04-04T10:32:42;96291.47;;;7.12;33.70
20860;BME280;10590;48.154;11.514;2023-04-04T10:38:06;96293.56;;;5.76;33.42
20860;BME280;10590;48.154;11.514;2023-04-04T10:43:31;96293.91;;;6.49;35.07
20860;BME280;10590;48.154;11.514;2023-04-04T10:48:56;96293.81;;;6.00;36.45
20860;BME280;10590;48.154;11.514;2023-04-04T10:54:19;96288.03;;;5.42;36.90
20860;BME280;10590;48.154;11.514;2023-04-04T11:00:06;96284.41;;;8.18;32.42
20860;BME280;10590;48.154;11.514;2023-04-04T11:05:30;96287.78;;;7.42;32.56
20860;BME280;10590;48.154;11.514;2023-04-04T11:10:54;96283.03;;;6.56;32.56
20860;BME280;10590;48.154;11.514;2023-04-04T11:16:16;96281.91;;;7.45;31.22
20860;BME280;10590;48.154;11.514;2023-04-04T11:21:40;96266.44;;;7.52;31.40
20860;BME280;10590;48.154;11.514;2023-04-04T11:27:06;96266.38;;;6.94;30.87
20860;BME280;10590;48.154;11.514;2023-04-04T11:32:32;96256.16;;;7.46;29.85
20860;BME280;10590;48.154;11.514;2023-04-04T11:37:59;96257.78;;;10.15;27.90
20860;BME280;10590;48.154;11.514;2023-04-04T11:43:24;96250.28;;;10.17;27.19
20860;BME280;10590;48.154;11.514;2023-04-04T11:48:46;96252.13;;;7.82;30.77
20860;BME280;10590;48.154;11.514;2023-04-04T11:54:12;96247.91;;;4.27;35.44
20860;BME280;10590;48.154;11.514;2023-04-04T11:59:39;96245.38;;;8.14;29.68
20860;BME280;10590;48.154;11.514;2023-04-04T12:05:02;96240.31;;;10.36;25.92
20860;BME280;10590;48.154;11.514;2023-04-04T12:10:27;96241.63;;;6.11;32.66
20860;BME280;10590;48.154;11.514;2023-04-04T12:15:51;96255.06;;;6.24;32.27
20860;BME280;10590;48.154;11.514;2023-04-04T12:21:13;96244.38;;;5.34;34.37
20860;BME280;10590;48.154;11.514;2023-04-04T12:26:36;96235.66;;;7.22;29.95
20860;BME280;10590;48.154;11.514;2023-04-04T12:31:59;96217.69;;;10.06;27.22
20860;BME280;10590;48.154;11.514;2023-04-04T12:37:22;96222.94;;;10.39;27.22
20860;BME280;10590;48.154;11.514;2023-04-04T12:42:47;96228.00;;;6.77;32.18
20860;BME280;10590;48.154;11.514;2023-04-04T12:48:12;96234.47;;;10.07;28.59
20860;BME280;10590;48.154;11.514;2023-04-04T12:53:49;96230.69;;;8.64;31.13
20860;BME280;10590;48.154;11.514;2023-04-04T12:59:12;96229.34;;;7.71;32.41
20860;BME280;10590;48.154;11.514;2023-04-04T13:04:35;96216.66;;;7.92;32.13
20860;BME280;10590;48.154;11.514;2023-04-04T13:10:00;96237.50;;;5.43;33.48
20860;BME280;10590;48.154;11.514;2023-04-04T13:15:23;96227.78;;;8.42;30.06
20860;BME280;10590;48.154;11.514;2023-04-04T13:21:07;96219.69;;;5.80;34.75
20860;BME280;10590;48.154;11.514;2023-04-04T13:26:29;96206.47;;;6.83;31.29
20860;BME280;10590;48.154;11.514;2023-04-04T13:31:50;96210.81;;;6.69;32.16
20860;BME280;10590;48.154;11.514;2023-04-04T13:37:14;96202.59;;;4.96;34.21
20860;BME280;10590;48.154;11.514;2023-04-04T13:42:35;96188.84;;;6.19;32.73
20860;BME280;10590;48.154;11.514;2023-04-04T13:47:57;96191.50;;;7.02;33.93
20860;BME280;10590;48.154;11.514;2023-04-04T13:53:20;96200.72;;;4.76;35.70
20860;BME280;10590;48.154;11.514;2023-04-04T13:58:42;96178.59;;;6.86;35.55
20860;BME280;10590;48.154;11.514;2023-04-04T14:04:03;96182.19;;;7.05;33.14
20860;BME280;10590;48.154;11.514;2023-04-04T14:09:26;96188.56;;;4.85;35.41
20860;BME280;10590;48.154;11.514;2023-04-04T14:14:48;96181.53;;;6.84;33.44
20860;BME280;10590;48.154;11.514;2023-04-04T14:20:11;96185.53;;;5.73;37.14
20860;BME280;10590;48.154;11.514;2023-04-04T14:25:34;96196.75;;;5.39;38.01
20860;BME280;10590;48.154;11.514;2023-04-04T14:30:56;96182.75;;;5.08;39.36
20860;BME280;10590;48.154;11.514;2023-04-04T14:36:18;96197.75;;;5.59;36.39
20860;BME280;10590;48.154;11.514;2023-04-04T14:41:43;96192.03;;;5.21;35.77
20860;BME280;10590;48.154;11.514;2023-04-04T14:47:05;96183.03;;;6.61;34.73
20860;BME280;10590;48.154;11.514;2023-04-04T14:52:26;96177.78;;;6.07;34.04
20860;BME280;10590;48.154;11.514;2023-04-04T14:57:52;96181.63;;;6.74;34.11
20860;BME280;10590;48.154;11.514;2023-04-04T15:03:13;96162.44;;;7.45;32.63
20860;BME280;10590;48.154;11.514;2023-04-04T15:08:35;96183.84;;;6.57;32.52
20860;BME280;10590;48.154;11.514;2023-04-04T15:13:58;96169.81;;;6.90;32.84
20860;BME280;10590;48.154;11.514;2023-04-04T15:19:20;96183.84;;;6.57;33.65
20860;BME280;10590;48.154;11.514;2023-04-04T15:24:42;96183.13;;;6.46;34.09
20860;BME280;10590;48.154;11.514;2023-04-04T15:30:06;96204.19;;;5.22;36.97
20860;BME280;10590;48.154;11.514;2023-04-04T15:35:28;96180.00;;;4.12;38.68
20860;BME280;10590;48.154;11.514;2023-04-04T15:40:49;96188.97;;;4.11;40.75
20860;BME280;10590;48.154;11.514;2023-04-04T15:46:13;96166.91;;;7.21;33.46
20860;BME280;10590;48.154;11.514;2023-04-04T15:51:35;96178.69;;;8.53;31.40
20860;BME280;10590;48.154;11.514;2023-04-04T15:56:58;96182.91;;;6.37;33.92
20860;BME280;10590;48.154;11.514;2023-04-04T16:02:22;96157.97;;;7.12;32.63
20860;BME280;10590;48.154;11.514;2023-04-04T16:07:44;96172.31;;;6.37;34.05
20860;BME280;10590;48.154;11.514;2023-04-04T16:13:05;96164.41;;;6.71;33.18
20860;BME280;10590;48.154;11.514;2023-04-04T16:18:28;96180.06;;;5.44;35.67
20860;BME280;10590;48.154;11.514;2023-04-04T16:23:50;96185.84;;;5.66;35.80
20860;BME280;10590;48.154;11.514;2023-04-04T16:29:12;96178.56;;;6.07;34.23
20860;BME280;10590;48.154;11.514;2023-04-04T16:34:35;96174.28;;;5.32;36.37
20860;BME280;10590;48.154;11.514;2023-04-04T16:39:58;96165.63;;;5.96;35.30
20860;BME280;10590;48.154;11.514;2023-04-04T16:45:22;96169.44;;;5.54;36.35
20860;BME280;10590;48.154;11.514;2023-04-04T16:50:45;96155.78;;;4.71;37.03
20860;BME280;10590;48.154;11.514;2023-04-04T16:56:06;96147.41;;;3.76;39.27
20860;BME280;10590;48.154;11.514;2023-04-04T17:01:28;96156.53;;;3.48;40.38
20860;BME280;10590;48.154;11.514;2023-04-04T17:06:52;96155.03;;;3.20;40.58
20860;BME280;10590;48.154;11.514;2023-04-04T17:12:13;96160.00;;;3.11;40.90
20860;BME280;10590;48.154;11.514;2023-04-04T17:17:35;96158.75;;;3.24;41.13
20860;BME280;10590;48.154;11.514;2023-04-04T17:22:58;96162.53;;;2.96;41.74
20860;BME280;10590;48.154;11.514;2023-04-04T17:28:20;96160.94;;;2.95;41.56
20860;BME280;10590;48.154;11.514;2023-04-04T17:33:41;96160.03;;;2.79;41.95
20860;BME280;10590;48.154;11.514;2023-04-04T17:39:04;96161.88;;;2.79;41.69
20860;BME280;10590;48.154;11.514;2023-04-04T17:44:26;96150.47;;;2.41;42.80
20860;BME280;10590;48.154;11.514;2023-04-04T17:49:48;96160.25;;;2.46;42.71
20860;BME280;10590;48.154;11.514;2023-04-04T17:55:11;96148.69;;;2.47;43.16
20860;BME280;10590;48.154;11.514;2023-04-04T18:00:33;96149.78;;;2.51;43.24
20860;BME280;10590;48.154;11.514;2023-04-04T18:05:55;96154.25;;;2.23;43.07
20860;BME280;10590;48.154;11.514;2023-04-04T18:11:18;96152.44;;;1.75;44.62
20860;BME280;10590;48.154;11.514;2023-04-04T18:16:40;96146.41;;;2.02;44.63
20860;BME280;10590;48.154;11.514;2023-04-04T18:22:01;96143.34;;;2.10;44.66
20860;BME280;10590;48.154;11.514;2023-04-04T18:27:24;96156.84;;;2.18;44.46
20860;BME280;10590;48.154;11.514;2023-04-04T18:32:46;96152.97;;;1.99;44.97
20860;BME280;10590;48.154;11.514;2023-04-04T18:38:08;96154.50;;;1.73;45.42
20860;BME280;10590;48.154;11.514;2023-04-04T18:43:31;96157.81;;;1.85;45.48
20860;BME280;10590;48.154;11.514;2023-04-04T18:48:54;96169.16;;;1.86;46.98
20860;BME280;10590;48.154;11.514;2023-04-04T18:54:15;96151.16;;;1.78;46.19
20860;BME280;10590;48.154;11.514;2023-04-04T18:59:38;96162.09;;;1.91;46.70
20860;BME280;10590;48.154;11.514;2023-04-04T19:05:01;96162.28;;;1.63;46.89
20860;BME280;10590;48.154;11.514;2023-04-04T19:10:23;96167.59;;;1.08;48.43
20860;BME280;10590;48.154;11.514;2023-04-04T19:15:46;96176.34;;;1.52;48.53
20860;BME280;10590;48.154;11.514;2023-04-04T19:21:08;96175.03;;;1.33;49.17
20860;BME280;10590;48.154;11.514;2023-04-04T19:26:30;96172.22;;;1.01;50.35
20860;BME280;10590;48.154;11.514;2023-04-04T19:31:53;96178.13;;;0.91;50.49
20860;BME280;10590;48.154;11.514;2023-04-04T19:37:14;96177.72;;;1.16;50.01
20860;BME280;10590;48.154;11.514;2023-04-04T19:42:40;96180.03;;;1.12;51.11
20860;BME280;10590;48.154;11.514;2023-04-04T19:48:07;96168.78;;;0.50;51.93
20860;BME280;10590;48.154;11.514;2023-04-04T19:53:50;96160.59;;;0.46;52.48
20860;BME280;10590;48.154;11.514;2023-04-04T19:59:42;96172.19;;;0.17;54.08
20860;BME280;10590;48.154;11.514;2023-04-04T20:11:12;96163.34;;;-0.06;54.49
20860;BME280;10590;48.154;11.514;2023-04-04T20:16:33;96172.03;;;0.23;54.24
20860;BME280;10590;48.154;11.514;2023-04-04T20:21:57;96157.22;;;-0.11;56.21
20860;BME280;10590;48.154;11.514;2023-04-04T20:27:20;96161.66;;;-0.12;55.76
20860;BME280;10590;48.154;11.514;2023-04-04T20:32:43;96169.38;;;0.07;56.84
20860;BME280;10590;48.154;11.514;2023-04-04T20:38:07;96163.72;;;-0.14;57.10
20860;BME280;10590;48.154;11.514;2023-04-04T20:43:28;96167.94;;;-0.53;57.86
20860;BME280;10590;48.154;11.514;2023-04-04T20:48:52;96161.66;;;-0.40;57.89
20860;BME280;10590;48.154;11.514;2023-04-04T20:54:17;96145.88;;;-0.69;58.65
20860;BME280;10590;48.154;11.514;2023-04-04T20:59:40;96174.13;;;-0.59;59.45
20860;BME280;10590;48.154;11.514;2023-04-04T21:05:25;96176.28;;;-0.68;59.84
20860;BME280;10590;48.154;11.514;2023-04-04T21:10:49;96170.84;;;-0.78;60.91
20860;BME280;10590;48.154;11.514;2023-04-04T21:16:12;96165.34;;;-0.88;62.21
20860;BME280;10590;48.154;11.514;2023-04-04T21:21:35;96173.69;;;-0.68;61.39
20860;BME280;10590;48.154;11.514;2023-04-04T21:26:59;96171.97;;;-0.74;61.57
20860;BME280;10590;48.154;11.514;2023-04-04T21:32:24;96168.19;;;-0.66;62.38
20860;BME280;10590;48.154;11.514;2023-04-04T21:37:46;96169.81;;;-0.77;62.63
20860;BME280;10590;48.154;11.514;2023-04-04T21:43:11;96168.78;;;-0.64;62.63
20860;BME280;10590;48.154;11.514;2023-04-04T21:48:32;96168.56;;;-0.86;63.24
20860;BME280;10590;48.154;11.514;2023-04-04T21:53:54;96168.75;;;-0.52;61.73
20860;BME280;10590;48.154;11.514;2023-04-04T21:59:18;96166.28;;;-0.71;62.07
20860;BME280;10590;48.154;11.514;2023-04-04T22:04:39;96167.19;;;-1.12;63.02
20860;BME280;10590;48.154;11.514;2023-04-04T22:10:01;96159.91;;;-1.10;62.94
20860;BME280;10590;48.154;11.514;2023-04-04T22:15:27;96166.50;;;-1.07;63.53
20860;BME280;10590;48.154;11.514;2023-04-04T22:20:49;96171.88;;;-0.79;63.12
20860;BME280;10590;48.154;11.514;2023-04-04T22:26:14;96158.38;;;-0.59;62.90
20860;BME280;10590;48.154;11.514;2023-04-04T22:31:40;96150.19;;;-0.62;62.90
20860;BME280;10590;48.154;11.514;2023-04-04T22:37:02;96148.84;;;-0.65;63.26
20860;BME280;10590;48.154;11.514;2023-04-04T22:42:24;96142.06;;;-0.49;63.17
20860;BME280;10590;48.154;11.514;2023-04-04T22:47:47;96134.78;;;-0.47;62.28
20860;BME280;10590;48.154;11.514;2023-04-04T22:53:09;96142.06;;;-0.49;63.17
20860;BME280;10590;48.154;11.514;2023-04-04T22:58:34;96138.75;;;-0.45;61.90
20860;BME280;10590;48.154;11.514;2023-04-04T23:03:57;96142.00;;;-0.89;63.44
20860;BME280;10590;48.154;11.514;2023-04-04T23:09:19;96131.78;;;-1.14;64.81
20860;BME280;10590;48.154;11.514;2023-04-04T23:14:41;96121.06;;;-0.78;64.62
20860;BME280;10590;48.154;11.514;2023-04-04T23:20:06;96120.94;;;-0.71;64.32
20860;BME280;10590;48.154;11.514;2023-04-04T23:25:28;96126.66;;;-1.09;65.54
20860;BME280;10590;48.154;11.514;2023-04-04T23:30:50;96126.88;;;-1.11;65.17
20860;BME280;10590;48.154;11.514;2023-04-04T23:36:13;96116.66;;;-1.59;67.05
20860;BME280;10590;48.154;11.514;2023-04-04T23:41:35;96132.69;;;-0.97;67.01
20860;BME280;10590;48.154;11.514;2023-04-04T23:46:57;96125.03;;;-0.87;65.69
20860;BME280;10590;48.154;11.514;2023-04-04T23:52:20;96127.09;;;-0.89;65.08
20860;BME280;10590;48.154;11.514;2023-04-04T23:57:42;96113.78;;;-0.99;65.99
